Time;durP1;ratioP1;P1;durP2;ratioP2;P2;SDS_P1;SDS_P2;PMS_P1;PMS_P2;Temp;Humidity;BMP_temperature;BMP_pressure;BME280_temperature;BME280_humidity;BME280_pressure;Samples;Min_cycle;Max_cycle;Signal;HPM_P1;HPM_P2
2022/08/17 00:00:20;;;;;;;60.50;4.73;;;;;;;;;;5114262;28;20452;-67
2022/08/17 00:03:02;;;;;;;62.30;5.83;;;;;;;;;;5114528;28;20465;-67
2022/08/17 00:05:30;;;;;;;60.97;5.40;;;;;;;;;;5114403;28;20829;-67
2022/08/17 00:07:58;;;;;;;62.77;4.40;;;;;;;;;;5114016;28;20847;-67
2022/08/17 00:10:25;;;;;;;60.13;4.67;;;;;;;;;;5114345;28;20447;-67
2022/08/17 00:12:52;;;;;;;62.30;5.63;;;;;;;;;;5114453;28;20512;-67
2022/08/17 00:15:20;;;;;;;60.00;4.50;;;;;;;;;;5114356;28;20456;-66
2022/08/17 00:17:48;;;;;;;60.67;5.30;;;;;;;;;;5114661;28;20442;-67
2022/08/17 00:20:17;;;;;;;60.67;5.07;;;;;;;;;;5113951;28;20442;-67
2022/08/17 00:22:44;;;;;;;60.53;5.10;;;;;;;;;;5114098;28;20461;-67
2022/08/17 00:25:14;;;;;;;62.00;5.73;;;;;;;;;;5114283;28;20447;-67
2022/08/17 00:27:41;;;;;;;60.47;5.30;;;;;;;;;;5114069;28;20448;-67
2022/08/17 00:30:09;;;;;;;60.10;5.03;;;;;;;;;;5113907;28;20453;-66
2022/08/17 00:32:38;;;;;;;60.10;4.80;;;;;;;;;;5114006;28;21032;-67
2022/08/17 00:35:05;;;;;;;60.97;4.93;;;;;;;;;;5113554;28;20441;-67
2022/08/17 00:37:34;;;;;;;61.33;5.30;;;;;;;;;;5114177;28;20446;-67
2022/08/17 00:40:01;;;;;;;61.10;5.40;;;;;;;;;;5113265;28;20445;-67
2022/08/17 00:42:28;;;;;;;60.50;5.10;;;;;;;;;;5113687;28;20472;-66
2022/08/17 00:44:55;;;;;;;64.20;5.40;;;;;;;;;;5113524;28;20964;-67
2022/08/17 00:47:22;;;;;;;60.37;4.77;;;;;;;;;;5113584;28;20443;-66
2022/08/17 00:49:49;;;;;;;60.87;5.53;;;;;;;;;;5113008;28;20449;-67
2022/08/17 00:52:20;;;;;;;60.83;4.77;;;;;;;;;;5113164;28;20477;-67
2022/08/17 00:54:51;;;;;;;61.53;6.03;;;;;;;;;;5113324;28;20463;-67
2022/08/17 00:57:19;;;;;;;60.90;4.77;;;;;;;;;;5113346;28;20446;-67
2022/08/17 00:59:49;;;;;;;60.70;4.87;;;;;;;;;;5113018;28;20825;-67
2022/08/17 01:02:17;;;;;;;60.70;5.70;;;;;;;;;;5113165;28;20548;-67
2022/08/17 01:04:45;;;;;;;60.93;6.00;;;;;;;;;;5113401;28;20457;-66
2022/08/17 01:07:13;;;;;;;62.20;6.13;;;;;;;;;;5113175;28;21010;-66
2022/08/17 01:09:40;;;;;;;60.57;4.80;;;;;;;;;;5112850;28;20450;-66
2022/08/17 01:12:09;;;;;;;60.93;5.17;;;;;;;;;;5112911;28;20485;-67
2022/08/17 01:14:38;;;;;;;62.43;5.20;;;;;;;;;;5113024;28;20803;-66
2022/08/17 01:17:06;;;;;;;60.80;5.33;;;;;;;;;;5112915;28;20963;-66
2022/08/17 01:19:35;;;;;;;62.93;5.50;;;;;;;;;;5112356;28;20867;-66
2022/08/17 01:22:07;;;;;;;60.43;4.83;;;;;;;;;;5112882;28;20458;-66
2022/08/17 01:24:36;;;;;;;61.30;5.70;;;;;;;;;;5113009;28;20446;-66
2022/08/17 01:27:03;;;;;;;60.30;5.10;;;;;;;;;;5112733;28;20933;-67
2022/08/17 01:29:31;;;;;;;60.30;4.70;;;;;;;;;;5112425;28;20441;-66
2022/08/17 01:31:59;;;;;;;60.70;5.00;;;;;;;;;;5112710;28;20500;-66
2022/08/17 01:34:26;;;;;;;61.90;5.80;;;;;;;;;;5112785;28;20868;-66
2022/08/17 01:36:54;;;;;;;59.90;4.73;;;;;;;;;;5112699;28;20449;-66
2022/08/17 01:39:23;;;;;;;61.60;6.23;;;;;;;;;;5110452;28;20820;-65
2022/08/17 01:41:54;;;;;;;61.60;4.70;;;;;;;;;;5112672;28;20453;-66
2022/08/17 01:44:22;;;;;;;61.13;5.50;;;;;;;;;;5113106;28;20445;-67
2022/08/17 01:46:49;;;;;;;61.87;5.70;;;;;;;;;;5112516;28;20468;-66
2022/08/17 01:49:17;;;;;;;60.00;4.63;;;;;;;;;;5112019;28;20812;-66
2022/08/17 01:51:44;;;;;;;61.67;4.73;;;;;;;;;;5112522;28;20466;-67
2022/08/17 01:54:12;;;;;;;61.00;5.47;;;;;;;;;;5112437;28;20457;-66
2022/08/17 01:56:41;;;;;;;60.60;5.40;;;;;;;;;;5112382;28;20450;-66
2022/08/17 01:59:10;;;;;;;62.77;5.40;;;;;;;;;;5112215;28;20447;-66
2022/08/17 02:01:38;;;;;;;59.70;4.47;;;;;;;;;;5112306;28;20466;-67
2022/08/17 02:04:05;;;;;;;61.40;5.10;;;;;;;;;;5112100;28;20453;-67
2022/08/17 02:06:34;;;;;;;60.37;4.60;;;;;;;;;;5112512;28;20453;-66
2022/08/17 02:09:02;;;;;;;61.30;5.70;;;;;;;;;;5112102;28;20445;-66
2022/08/17 02:11:29;;;;;;;65.97;6.30;;;;;;;;;;5112317;28;20473;-66
2022/08/17 02:13:56;;;;;;;60.80;5.17;;;;;;;;;;5112219;28;20484;-67
2022/08/17 02:16:25;;;;;;;63.03;5.13;;;;;;;;;;5112208;28;20958;-66
2022/08/17 02:18:52;;;;;;;62.67;5.47;;;;;;;;;;5112188;28;20450;-66
2022/08/17 02:21:19;;;;;;;60.77;5.07;;;;;;;;;;5112036;28;20466;-66
2022/08/17 02:23:48;;;;;;;59.93;5.40;;;;;;;;;;5112432;28;20438;-66
2022/08/17 02:26:16;;;;;;;61.00;5.37;;;;;;;;;;5112342;28;20452;-66
2022/08/17 02:28:43;;;;;;;61.10;5.17;;;;;;;;;;5111797;28;20445;-66
2022/08/17 02:31:11;;;;;;;61.60;5.40;;;;;;;;;;5112963;28;20934;-66
2022/08/17 02:33:41;;;;;;;61.20;4.67;;;;;;;;;;5116064;28;21006;-66
2022/08/17 02:36:09;;;;;;;60.17;4.50;;;;;;;;;;5116305;28;20484;-66
2022/08/17 02:38:37;;;;;;;63.43;6.00;;;;;;;;;;5115784;28;20440;-66
2022/08/17 02:41:04;;;;;;;59.87;4.37;;;;;;;;;;5115998;28;20445;-66
2022/08/17 02:43:31;;;;;;;61.90;4.87;;;;;;;;;;5116407;28;20437;-66
2022/08/17 02:45:59;;;;;;;61.27;6.57;;;;;;;;;;5116154;28;20442;-66
2022/08/17 02:48:26;;;;;;;60.27;4.97;;;;;;;;;;5115879;28;20832;-66
2022/08/17 02:50:55;;;;;;;60.83;5.17;;;;;;;;;;5115737;28;20445;-66
2022/08/17 02:53:22;;;;;;;60.87;5.57;;;;;;;;;;5115841;28;20485;-66
2022/08/17 02:55:49;;;;;;;61.10;5.67;;;;;;;;;;5115785;28;20448;-66
2022/08/17 02:58:17;;;;;;;61.37;5.30;;;;;;;;;;5115492;28;20833;-67
2022/08/17 03:00:47;;;;;;;60.23;5.00;;;;;;;;;;5115667;28;20479;-66
2022/08/17 03:03:17;;;;;;;61.37;4.60;;;;;;;;;;5115499;28;20571;-66
2022/08/17 03:05:45;;;;;;;61.03;5.13;;;;;;;;;;5115625;28;20541;-66
2022/08/17 03:08:14;;;;;;;61.27;5.77;;;;;;;;;;5115596;28;20453;-66
2022/08/17 03:10:41;;;;;;;60.27;5.10;;;;;;;;;;5115294;28;20933;-66
2022/08/17 03:13:08;;;;;;;61.63;5.40;;;;;;;;;;5115554;28;20457;-67
2022/08/17 03:15:38;;;;;;;61.40;5.20;;;;;;;;;;5115393;28;20477;-66
2022/08/17 03:18:05;;;;;;;60.40;4.70;;;;;;;;;;5115546;28;20855;-66
2022/08/17 03:20:35;;;;;;;61.50;5.77;;;;;;;;;;5115166;28;20562;-66
2022/08/17 03:23:02;;;;;;;61.60;6.03;;;;;;;;;;5115036;28;20879;-66
2022/08/17 03:25:32;;;;;;;61.97;5.60;;;;;;;;;;5115446;28;20469;-66
2022/08/17 03:27:59;;;;;;;62.63;5.03;;;;;;;;;;5115167;28;20937;-66
2022/08/17 03:30:27;;;;;;;62.03;6.50;;;;;;;;;;5115001;28;20460;-66
2022/08/17 03:32:55;;;;;;;62.97;4.60;;;;;;;;;;5115178;28;20556;-67
2022/08/17 03:35:24;;;;;;;62.00;5.17;;;;;;;;;;5115133;28;21145;-66
2022/08/17 03:37:51;;;;;;;60.00;5.20;;;;;;;;;;5114939;28;20449;-67
2022/08/17 03:40:19;;;;;;;61.80;5.73;;;;;;;;;;5114896;28;20817;-67
2022/08/17 03:42:49;;;;;;;63.10;7.10;;;;;;;;;;5114289;28;20489;-66
2022/08/17 03:56:40;;;;;;;64.07;7.80;;;;;;;;;;5114986;28;20825;-66
2022/08/17 03:59:04;;;;;;;60.30;5.07;;;;;;;;;;5114379;28;20418;-66
2022/08/17 04:01:31;;;;;;;60.37;5.00;;;;;;;;;;5114517;28;20468;-66
2022/08/17 04:03:59;;;;;;;61.67;5.67;;;;;;;;;;5114568;28;20789;-66
2022/08/17 04:06:26;;;;;;;60.53;4.87;;;;;;;;;;5114534;28;20449;-66
2022/08/17 04:08:53;;;;;;;61.50;5.30;;;;;;;;;;5114036;28;20441;-66
2022/08/17 04:11:20;;;;;;;60.37;5.30;;;;;;;;;;5114568;28;20462;-66
2022/08/17 04:13:47;;;;;;;61.60;5.33;;;;;;;;;;5114275;28;20933;-67
2022/08/17 04:16:15;;;;;;;60.40;4.80;;;;;;;;;;5114383;28;20477;-66
2022/08/17 04:18:43;;;;;;;61.03;4.97;;;;;;;;;;5114013;28;20452;-66
2022/08/17 04:21:10;;;;;;;61.57;5.43;;;;;;;;;;5114096;28;20526;-66
2022/08/17 04:23:37;;;;;;;60.57;4.40;;;;;;;;;;5113876;28;20509;-66
2022/08/17 04:26:04;;;;;;;62.23;5.17;;;;;;;;;;5114147;28;20520;-66
2022/08/17 04:28:31;;;;;;;60.07;4.50;;;;;;;;;;5114029;28;20508;-64
2022/08/17 04:30:59;;;;;;;60.87;4.70;;;;;;;;;;5113866;28;20448;-66
2022/08/17 04:33:29;;;;;;;64.33;4.90;;;;;;;;;;5114008;28;20478;-66
2022/08/17 04:35:58;;;;;;;62.00;5.57;;;;;;;;;;5113917;28;20791;-66
2022/08/17 04:38:25;;;;;;;61.20;5.50;;;;;;;;;;5114018;28;20813;-66
2022/08/17 04:43:38;;;;;;;61.20;5.37;;;;;;;;;;5113757;28;20488;-67
2022/08/17 04:46:07;;;;;;;61.10;5.27;;;;;;;;;;5113766;28;20445;-67
2022/08/17 04:48:37;;;;;;;61.47;5.73;;;;;;;;;;5113244;28;20445;-66
2022/08/17 04:51:05;;;;;;;61.60;5.20;;;;;;;;;;5113862;28;20524;-66
2022/08/17 04:53:32;;;;;;;62.33;5.80;;;;;;;;;;5113615;28;20457;-66
2022/08/17 04:55:59;;;;;;;62.37;6.13;;;;;;;;;;5112490;28;20441;-67
2022/08/17 04:58:27;;;;;;;61.30;5.10;;;;;;;;;;5113393;28;20449;-66
2022/08/17 05:00:54;;;;;;;61.73;4.90;;;;;;;;;;5113342;28;20499;-66
2022/08/17 05:03:21;;;;;;;61.90;6.27;;;;;;;;;;5113127;28;20573;-67
2022/08/17 05:05:50;;;;;;;60.77;5.13;;;;;;;;;;5113432;28;20448;-66
2022/08/17 05:08:18;;;;;;;60.60;4.73;;;;;;;;;;5113226;28;20446;-66
2022/08/17 05:10:45;;;;;;;60.47;5.40;;;;;;;;;;5113025;28;20448;-66
2022/08/17 05:13:14;;;;;;;60.33;4.70;;;;;;;;;;5113140;28;20540;-66
2022/08/17 05:15:41;;;;;;;60.57;4.70;;;;;;;;;;5113056;28;21021;-66
2022/08/17 05:18:09;;;;;;;61.37;5.13;;;;;;;;;;5113354;28;20442;-66
2022/08/17 05:20:37;;;;;;;60.93;4.90;;;;;;;;;;5112917;28;20441;-66
2022/08/17 05:23:07;;;;;;;62.07;5.57;;;;;;;;;;5112892;28;20550;-66
2022/08/17 05:25:36;;;;;;;62.37;5.40;;;;;;;;;;5113022;28;20439;-67
2022/08/17 05:28:03;;;;;;;60.30;4.83;;;;;;;;;;5112784;28;20445;-66
2022/08/17 05:30:30;;;;;;;61.07;4.80;;;;;;;;;;5112782;28;20450;-66
2022/08/17 05:32:58;;;;;;;61.00;5.00;;;;;;;;;;5112594;28;20465;-66
2022/08/17 05:35:25;;;;;;;60.60;5.33;;;;;;;;;;5112733;28;20445;-66
2022/08/17 05:37:53;;;;;;;60.80;4.90;;;;;;;;;;5112515;28;20458;-66
2022/08/17 05:40:22;;;;;;;60.80;5.40;;;;;;;;;;5112410;28;20473;-66
2022/08/17 05:42:50;;;;;;;62.30;5.50;;;;;;;;;;5112231;28;20465;-66
2022/08/17 05:45:19;;;;;;;61.20;5.87;;;;;;;;;;5112658;28;20549;-66
2022/08/17 05:47:47;;;;;;;61.00;5.63;;;;;;;;;;5112676;28;20488;-66
2022/08/17 05:50:19;;;;;;;61.70;6.57;;;;;;;;;;5112205;28;20450;-67
2022/08/17 05:52:48;;;;;;;60.60;5.40;;;;;;;;;;5112377;28;20469;-66
2022/08/17 05:55:19;;;;;;;60.20;4.80;;;;;;;;;;5112413;28;20453;-66
2022/08/17 05:57:53;;;;;;;60.40;5.53;;;;;;;;;;5112473;28;20454;-66
2022/08/17 06:00:22;;;;;;;59.40;4.30;;;;;;;;;;5112175;28;20450;-66
2022/08/17 06:02:54;;;;;;;61.10;4.83;;;;;;;;;;5112323;28;20556;-66
2022/08/17 06:05:29;;;;;;;62.20;6.13;;;;;;;;;;5112542;28;20536;-67
2022/08/17 06:08:04;;;;;;;61.53;5.37;;;;;;;;;;5111946;28;20489;-66
2022/08/17 06:10:34;;;;;;;79.93;5.80;;;;;;;;;;5111902;28;20945;-66
2022/08/17 06:13:10;;;;;;;60.80;5.07;;;;;;;;;;5112072;28;20475;-67
2022/08/17 06:15:42;;;;;;;64.13;5.63;;;;;;;;;;5112195;28;20966;-66
2022/08/17 06:18:11;;;;;;;61.60;6.00;;;;;;;;;;5112007;28;20981;-66
2022/08/17 06:20:43;;;;;;;60.77;5.20;;;;;;;;;;5112041;28;20899;-66
2022/08/17 06:23:14;;;;;;;62.10;5.53;;;;;;;;;;5112135;28;20845;-65
2022/08/17 06:25:45;;;;;;;61.33;5.57;;;;;;;;;;5112169;28;20449;-67
2022/08/17 06:28:15;;;;;;;62.90;6.07;;;;;;;;;;5111895;28;20458;-66
2022/08/17 06:30:47;;;;;;;61.60;4.93;;;;;;;;;;5111736;28;20517;-67
2022/08/17 06:33:17;;;;;;;62.30;5.23;;;;;;;;;;5112090;28;20450;-66
2022/08/17 06:35:49;;;;;;;59.57;4.70;;;;;;;;;;5112099;28;20530;-66
2022/08/17 06:38:20;;;;;;;59.40;4.33;;;;;;;;;;5112139;28;20450;-66
2022/08/17 06:40:54;;;;;;;60.23;5.03;;;;;;;;;;5111466;28;20825;-66
2022/08/17 06:43:31;;;;;;;60.50;5.60;;;;;;;;;;5112087;28;20829;-66
2022/08/17 06:46:01;;;;;;;60.70;4.80;;;;;;;;;;5112100;28;20535;-66
2022/08/17 06:48:33;;;;;;;60.77;4.57;;;;;;;;;;5111682;28;20455;-66
2022/08/17 06:51:03;;;;;;;64.90;5.00;;;;;;;;;;5111842;28;20449;-66
2022/08/17 06:53:31;;;;;;;60.47;5.13;;;;;;;;;;5111457;28;20462;-66
2022/08/17 06:56:00;;;;;;;60.17;5.13;;;;;;;;;;5111869;28;20941;-66
2022/08/17 06:58:30;;;;;;;61.07;4.87;;;;;;;;;;5111613;28;20445;-66
2022/08/17 07:00:59;;;;;;;60.10;4.90;;;;;;;;;;5111667;28;20453;-66
2022/08/17 07:03:29;;;;;;;66.40;5.30;;;;;;;;;;5111649;28;20894;-67
2022/08/17 07:05:59;;;;;;;60.67;5.07;;;;;;;;;;5111610;28;20444;-66
2022/08/17 07:08:32;;;;;;;59.20;4.27;;;;;;;;;;5111756;28;20445;-66
2022/08/17 07:11:02;;;;;;;59.67;4.30;;;;;;;;;;5111728;28;20456;-67
2022/08/17 07:13:39;;;;;;;61.37;6.17;;;;;;;;;;5111560;28;20985;-66
2022/08/17 07:16:12;;;;;;;60.40;4.70;;;;;;;;;;5111753;28;20437;-66
2022/08/17 07:18:39;;;;;;;59.50;4.50;;;;;;;;;;5112685;28;20449;-66
2022/08/17 07:21:10;;;;;;;65.23;5.03;;;;;;;;;;5115260;28;20470;-66
2022/08/17 07:23:42;;;;;;;60.80;4.53;;;;;;;;;;5115423;28;20898;-67
2022/08/17 07:26:12;;;;;;;59.73;4.23;;;;;;;;;;5115225;28;20449;-67
2022/08/17 07:28:40;;;;;;;59.10;3.80;;;;;;;;;;5115200;28;20443;-66
2022/08/17 07:31:07;;;;;;;59.70;3.97;;;;;;;;;;5114816;28;20472;-66
2022/08/17 07:33:38;;;;;;;60.43;4.20;;;;;;;;;;5115300;28;20437;-66
2022/08/17 07:36:05;;;;;;;60.70;5.20;;;;;;;;;;5115165;28;20504;-66
2022/08/17 07:38:33;;;;;;;60.40;4.37;;;;;;;;;;5114609;28;20490;-66
2022/08/17 07:41:02;;;;;;;59.43;4.43;;;;;;;;;;5114735;28;20958;-67
2022/08/17 07:43:31;;;;;;;59.80;4.20;;;;;;;;;;5114956;28;20453;-67
2022/08/17 07:48:57;;;;;;;60.60;4.50;;;;;;;;;;5114486;28;20599;-66
2022/08/17 07:51:26;;;;;;;59.87;3.80;;;;;;;;;;5114675;28;20999;-67
2022/08/17 07:53:54;;;;;;;60.47;4.27;;;;;;;;;;5114255;28;20540;-65
2022/08/17 07:56:36;;;;;;;58.97;4.10;;;;;;;;;;5114775;28;20481;-66
2022/08/17 07:59:07;;;;;;;59.37;3.63;;;;;;;;;;5114405;28;20450;-67
2022/08/17 08:01:36;;;;;;;61.00;3.90;;;;;;;;;;5114219;28;21030;-67
2022/08/17 08:04:16;;;;;;;61.07;3.50;;;;;;;;;;5114295;28;20473;-66
2022/08/17 08:06:47;;;;;;;59.67;3.90;;;;;;;;;;5114410;28;20445;-67
2022/08/17 08:09:28;;;;;;;59.60;4.27;;;;;;;;;;5114117;28;20445;-66
2022/08/17 08:11:55;;;;;;;59.87;4.10;;;;;;;;;;5114251;28;20897;-66
2022/08/17 08:14:25;;;;;;;60.77;4.33;;;;;;;;;;5114468;28;20437;-67
2022/08/17 08:16:58;;;;;;;59.67;3.63;;;;;;;;;;5114030;28;20445;-67
2022/08/17 08:19:26;;;;;;;58.93;3.50;;;;;;;;;;5114145;28;20449;-67
2022/08/17 08:21:58;;;;;;;59.50;4.20;;;;;;;;;;5114423;28;20809;-66
2022/08/17 08:24:47;;;;;;;59.80;4.00;;;;;;;;;;5113935;28;20484;-66
2022/08/17 08:27:18;;;;;;;59.80;4.20;;;;;;;;;;5114001;28;20445;-66
2022/08/17 08:29:53;;;;;;;60.30;3.53;;;;;;;;;;5113942;28;20448;-67
2022/08/17 08:32:26;;;;;;;59.57;3.43;;;;;;;;;;5114182;28;20559;-66
2022/08/17 08:34:58;;;;;;;58.77;3.40;;;;;;;;;;5114843;28;20879;-66
2022/08/17 08:37:29;;;;;;;60.20;3.80;;;;;;;;;;5114579;28;20445;-67
2022/08/17 08:39:59;;;;;;;59.57;4.47;;;;;;;;;;5114499;28;20456;-67
2022/08/17 08:42:31;;;;;;;58.70;3.30;;;;;;;;;;5115547;28;20461;-67
2022/08/17 08:45:00;;;;;;;58.80;3.20;;;;;;;;;;5114817;28;20576;-67
2022/08/17 08:47:41;;;;;;;60.10;3.67;;;;;;;;;;5114514;28;20445;-67
2022/08/17 08:50:12;;;;;;;60.43;4.07;;;;;;;;;;5114075;28;20464;-67
2022/08/17 08:52:50;;;;;;;59.10;3.50;;;;;;;;;;5114297;28;20470;-68
2022/08/17 08:55:19;;;;;;;59.43;4.20;;;;;;;;;;5114262;28;20505;-67
2022/08/17 08:57:50;;;;;;;59.10;3.77;;;;;;;;;;5114496;28;20529;-67
2022/08/17 09:00:19;;;;;;;58.97;3.87;;;;;;;;;;5113893;28;20528;-66
2022/08/17 09:03:07;;;;;;;60.03;3.67;;;;;;;;;;5113754;28;20473;-68
2022/08/17 09:05:41;;;;;;;59.33;3.93;;;;;;;;;;5114233;28;20847;-67
2022/08/17 09:08:14;;;;;;;59.70;3.93;;;;;;;;;;5113899;28;20938;-67
2022/08/17 09:10:49;;;;;;;59.33;3.80;;;;;;;;;;5113702;28;20442;-67
2022/08/17 09:13:21;;;;;;;59.20;3.80;;;;;;;;;;5113844;28;20459;-67
2022/08/17 09:15:50;;;;;;;60.57;4.33;;;;;;;;;;5113987;28;20450;-68
2022/08/17 09:18:20;;;;;;;59.70;4.23;;;;;;;;;;5113939;28;20456;-68
2022/08/17 09:20:50;;;;;;;59.90;4.20;;;;;;;;;;5113776;28;20442;-67
2022/08/17 09:23:23;;;;;;;59.63;4.00;;;;;;;;;;5114284;28;20823;-67
2022/08/17 09:25:55;;;;;;;58.57;3.57;;;;;;;;;;5113724;28;20493;-68
2022/08/17 09:28:27;;;;;;;59.53;3.63;;;;;;;;;;5113780;28;20449;-68
2022/08/17 09:31:01;;;;;;;59.93;3.87;;;;;;;;;;5113556;28;20529;-68
2022/08/17 09:33:32;;;;;;;59.07;3.30;;;;;;;;;;5113799;28;20948;-68
2022/08/17 09:36:01;;;;;;;62.93;3.80;;;;;;;;;;5113407;28;20824;-67
2022/08/17 09:38:30;;;;;;;61.30;3.50;;;;;;;;;;5113502;28;20445;-66
2022/08/17 09:41:00;;;;;;;60.53;4.40;;;;;;;;;;5112897;28;20548;-67
2022/08/17 09:43:32;;;;;;;59.33;3.27;;;;;;;;;;5113235;28;20441;-66
2022/08/17 09:46:01;;;;;;;58.90;3.80;;;;;;;;;;5113244;28;20804;-68
2022/08/17 09:48:33;;;;;;;59.97;4.50;;;;;;;;;;5112926;28;20441;-67
2022/08/17 09:51:01;;;;;;;59.27;3.90;;;;;;;;;;5113153;28;20485;-67
2022/08/17 09:53:28;;;;;;;61.07;3.70;;;;;;;;;;5112616;28;20457;-67
2022/08/17 09:56:03;;;;;;;59.57;4.23;;;;;;;;;;5112905;28;20520;-67
2022/08/17 09:58:34;;;;;;;60.60;4.80;;;;;;;;;;5112861;28;20449;-67
2022/08/17 10:01:03;;;;;;;60.27;3.93;;;;;;;;;;5112806;28;20450;-68
2022/08/17 10:03:41;;;;;;;59.33;3.73;;;;;;;;;;5113016;28;20488;-67
2022/08/17 10:06:13;;;;;;;59.07;4.10;;;;;;;;;;5113060;28;20489;-68
2022/08/17 10:08:43;;;;;;;59.67;3.73;;;;;;;;;;5112993;28;20528;-67
2022/08/17 10:11:15;;;;;;;58.87;3.50;;;;;;;;;;5113807;28;20544;-68
2022/08/17 10:13:45;;;;;;;59.60;3.97;;;;;;;;;;5113849;28;20528;-67
2022/08/17 10:16:18;;;;;;;61.57;4.10;;;;;;;;;;5113396;28;20534;-68
2022/08/17 10:18:52;;;;;;;59.87;4.10;;;;;;;;;;5113295;28;20453;-67
2022/08/17 10:26:54;;;;;;;59.70;4.73;;;;;;;;;;5113758;28;20929;-67
2022/08/17 10:29:23;;;;;;;61.00;4.73;;;;;;;;;;5113403;28;20445;-67
2022/08/17 10:31:52;;;;;;;59.30;4.10;;;;;;;;;;5113410;28;20457;-67
2022/08/17 10:34:34;;;;;;;60.67;4.30;;;;;;;;;;5113051;28;20446;-68
2022/08/17 10:37:09;;;;;;;58.40;3.17;;;;;;;;;;5096478;27;20472;-67
2022/08/17 10:39:43;;;;;;;60.77;3.67;;;;;;;;;;5113339;28;20445;-68
2022/08/17 10:42:19;;;;;;;59.60;3.73;;;;;;;;;;5113819;28;20466;-67
2022/08/17 10:44:49;;;;;;;57.97;2.70;;;;;;;;;;5113255;28;20472;-68
2022/08/17 10:47:17;;;;;;;58.87;3.50;;;;;;;;;;5113567;28;20447;-68
2022/08/17 10:49:48;;;;;;;59.30;3.77;;;;;;;;;;5113179;28;20449;-68
2022/08/17 10:52:34;;;;;;;58.93;3.50;;;;;;;;;;5113872;28;20497;-67
2022/08/17 10:55:12;;;;;;;58.97;3.37;;;;;;;;;;5117339;28;20449;-67
2022/08/17 10:57:41;;;;;;;62.87;3.77;;;;;;;;;;5117135;28;20475;-67
2022/08/17 11:00:14;;;;;;;59.57;3.50;;;;;;;;;;5116600;28;20452;-67
2022/08/17 11:02:51;;;;;;;61.43;3.40;;;;;;;;;;5117175;28;20477;-67
2022/08/17 11:05:36;;;;;;;59.07;3.40;;;;;;;;;;5116973;28;20481;-67
2022/08/17 11:08:26;;;;;;;58.57;3.20;;;;;;;;;;5116965;28;20441;-68
2022/08/17 11:11:11;;;;;;;58.47;3.00;;;;;;;;;;5116516;28;20809;-67
2022/08/17 11:13:45;;;;;;;59.70;3.67;;;;;;;;;;5116590;28;20448;-68
2022/08/17 11:16:26;;;;;;;59.10;2.97;;;;;;;;;;5116405;28;20536;-67
2022/08/17 11:19:17;;;;;;;58.30;3.10;;;;;;;;;;5115833;28;20447;-67
2022/08/17 11:21:53;;;;;;;58.97;3.17;;;;;;;;;;5116109;28;20542;-68
2022/08/17 11:24:22;;;;;;;59.83;3.80;;;;;;;;;;5116378;28;20949;-68
2022/08/17 11:27:02;;;;;;;59.70;3.43;;;;;;;;;;5117074;28;20926;-67
2022/08/17 11:29:31;;;;;;;58.50;3.30;;;;;;;;;;5115472;28;20445;-68
2022/08/17 11:32:00;;;;;;;58.47;3.30;;;;;;;;;;5117111;28;20544;-68
2022/08/17 11:34:29;;;;;;;61.27;3.23;;;;;;;;;;5115315;28;20941;-68
2022/08/17 11:37:20;;;;;;;58.57;3.33;;;;;;;;;;5114925;28;20994;-68
2022/08/17 11:40:05;;;;;;;58.10;3.10;;;;;;;;;;5114767;28;20820;-68
2022/08/17 11:42:39;;;;;;;60.50;3.00;;;;;;;;;;5074222;28;20556;-68
2022/08/17 11:45:19;;;;;;;59.77;3.77;;;;;;;;;;5115020;28;20481;-67
2022/08/17 11:54:04;;;;;;;59.50;4.30;;;;;;;;;;5114510;28;20444;-68
2022/08/17 11:56:40;;;;;;;58.77;3.53;;;;;;;;;;5114831;28;20519;-69
2022/08/17 11:59:21;;;;;;;58.90;3.87;;;;;;;;;;5114230;28;20452;-67
2022/08/17 12:01:55;;;;;;;57.97;2.80;;;;;;;;;;5113978;28;20484;-68
2022/08/17 12:04:27;;;;;;;58.67;3.40;;;;;;;;;;5113913;28;20941;-68
2022/08/17 12:06:56;;;;;;;61.63;3.43;;;;;;;;;;5114470;28;20481;-68
2022/08/17 12:09:25;;;;;;;59.10;2.90;;;;;;;;;;5114181;28;20542;-69
2022/08/17 12:11:55;;;;;;;62.50;3.60;;;;;;;;;;5114230;28;20477;-68
2022/08/17 12:14:25;;;;;;;59.50;3.10;;;;;;;;;;5114638;28;20441;-68
2022/08/17 12:17:00;;;;;;;59.50;3.37;;;;;;;;;;5114116;28;20997;-68
2022/08/17 12:19:28;;;;;;;58.60;3.10;;;;;;;;;;5113851;28;20441;-67
2022/08/17 12:21:58;;;;;;;58.60;3.13;;;;;;;;;;5114052;28;20470;-67
2022/08/17 12:24:36;;;;;;;58.70;3.50;;;;;;;;;;5114023;28;20453;-68
2022/08/17 12:27:04;;;;;;;58.97;3.33;;;;;;;;;;5113796;28;20465;-68
2022/08/17 12:29:32;;;;;;;58.80;3.20;;;;;;;;;;5113507;28;20477;-68
2022/08/17 12:32:02;;;;;;;59.00;2.80;;;;;;;;;;5113783;28;20586;-68
2022/08/17 12:34:34;;;;;;;57.87;2.70;;;;;;;;;;5113667;28;20442;-68
2022/08/17 12:37:02;;;;;;;59.67;3.33;;;;;;;;;;5113638;28;20446;-67
2022/08/17 12:39:30;;;;;;;63.10;3.93;;;;;;;;;;5113511;28;20540;-68
2022/08/17 12:41:59;;;;;;;61.80;3.50;;;;;;;;;;5114030;28;20469;-68
2022/08/17 12:44:27;;;;;;;58.70;3.40;;;;;;;;;;5113776;28;20806;-68
2022/08/17 12:46:56;;;;;;;59.40;3.43;;;;;;;;;;5113578;28;20492;-68
2022/08/17 12:49:29;;;;;;;58.40;2.93;;;;;;;;;;5113176;28;20450;-68
2022/08/17 12:52:12;;;;;;;58.90;3.03;;;;;;;;;;5113336;28;20472;-68
2022/08/17 12:54:42;;;;;;;58.27;2.90;;;;;;;;;;5113823;28;20624;-68
2022/08/17 12:57:12;;;;;;;58.20;2.90;;;;;;;;;;5114990;28;20444;-68
2022/08/17 12:59:41;;;;;;;58.40;2.90;;;;;;;;;;5113525;28;20456;-68
2022/08/17 13:02:10;;;;;;;58.30;2.80;;;;;;;;;;5114319;28;20576;-68
2022/08/17 13:04:41;;;;;;;58.20;3.00;;;;;;;;;;5113816;28;20441;-69
2022/08/17 13:07:08;;;;;;;57.97;2.93;;;;;;;;;;5114790;28;20861;-68
2022/08/17 13:09:35;;;;;;;57.97;2.97;;;;;;;;;;5115451;28;20457;-69
2022/08/17 13:12:03;;;;;;;58.30;3.23;;;;;;;;;;5115846;28;20461;-69
2022/08/17 13:14:30;;;;;;;58.00;2.80;;;;;;;;;;5115471;28;20536;-69
2022/08/17 13:16:59;;;;;;;57.83;2.90;;;;;;;;;;5114381;28;20468;-68
2022/08/17 13:19:27;;;;;;;58.20;3.30;;;;;;;;;;5112782;28;20442;-68
2022/08/17 13:21:57;;;;;;;58.00;2.87;;;;;;;;;;5113702;28;20908;-68
2022/08/17 13:24:26;;;;;;;58.43;2.97;;;;;;;;;;5113471;28;20441;-68
2022/08/17 13:26:55;;;;;;;58.03;2.80;;;;;;;;;;5113231;28;20485;-68
2022/08/17 13:29:23;;;;;;;58.30;2.90;;;;;;;;;;5112535;28;21002;-69
2022/08/17 13:31:51;;;;;;;58.20;3.30;;;;;;;;;;5115577;28;20500;-68
2022/08/17 13:34:34;;;;;;;58.50;3.70;;;;;;;;;;5116735;28;20875;-69
2022/08/17 13:37:20;;;;;;;58.87;3.60;;;;;;;;;;5116362;28;20473;-66
2022/08/17 13:39:48;;;;;;;57.70;3.00;;;;;;;;;;5113333;28;20528;-66
2022/08/17 13:42:38;;;;;;;57.50;2.80;;;;;;;;;;5114352;28;20484;-68
2022/08/17 13:45:25;;;;;;;58.53;3.07;;;;;;;;;;5112769;28;20446;-68
2022/08/17 13:48:04;;;;;;;57.40;2.60;;;;;;;;;;5113001;28;20528;-68
2022/08/17 13:50:31;;;;;;;57.37;2.93;;;;;;;;;;5113206;28;20607;-68
2022/08/17 13:52:58;;;;;;;56.97;2.53;;;;;;;;;;5112581;28;20465;-68
2022/08/17 13:55:28;;;;;;;57.77;3.13;;;;;;;;;;5113807;28;20442;-67
2022/08/17 13:57:56;;;;;;;57.37;3.07;;;;;;;;;;5113106;28;20445;-67
2022/08/17 14:00:29;;;;;;;58.33;3.00;;;;;;;;;;5113531;28;20448;-69
2022/08/17 14:02:57;;;;;;;57.50;3.10;;;;;;;;;;5113981;28;20498;-68
2022/08/17 14:05:24;;;;;;;57.20;3.10;;;;;;;;;;5114499;28;20798;-68
2022/08/17 14:07:55;;;;;;;57.30;3.30;;;;;;;;;;5112576;28;20445;-68
2022/08/17 14:10:22;;;;;;;57.30;2.90;;;;;;;;;;5112770;28;20460;-68
2022/08/17 14:12:51;;;;;;;57.57;3.17;;;;;;;;;;5113246;28;20554;-68
2022/08/17 14:15:19;;;;;;;57.50;3.20;;;;;;;;;;5112316;28;20441;-68
2022/08/17 14:17:47;;;;;;;57.40;3.10;;;;;;;;;;5112782;28;20449;-68
2022/08/17 14:20:15;;;;;;;57.50;2.90;;;;;;;;;;5112992;28;20450;-68
2022/08/17 14:22:45;;;;;;;57.93;3.00;;;;;;;;;;5112809;28;20487;-67
2022/08/17 14:25:13;;;;;;;57.07;2.90;;;;;;;;;;5113456;28;20449;-67
2022/08/17 14:27:40;;;;;;;57.87;3.20;;;;;;;;;;5117871;28;20476;-68
2022/08/17 14:30:09;;;;;;;57.30;3.20;;;;;;;;;;5120201;28;20448;-68
2022/08/17 14:32:37;;;;;;;57.27;2.90;;;;;;;;;;5118943;28;20895;-66
2022/08/17 14:35:05;;;;;;;57.07;2.67;;;;;;;;;;5119203;28;20471;-68
2022/08/17 14:37:33;;;;;;;57.53;2.83;;;;;;;;;;5120594;28;20877;-68
2022/08/17 14:40:02;;;;;;;58.17;2.90;;;;;;;;;;5119627;28;20480;-68
2022/08/17 14:42:31;;;;;;;57.70;3.07;;;;;;;;;;5120845;28;20472;-68
2022/08/17 14:44:59;;;;;;;57.30;3.03;;;;;;;;;;5120851;28;20634;-67
2022/08/17 14:47:27;;;;;;;57.07;2.63;;;;;;;;;;5118753;28;20853;-67
2022/08/17 14:49:54;;;;;;;57.80;3.10;;;;;;;;;;5119501;28;20884;-67
2022/08/17 14:52:21;;;;;;;57.93;3.20;;;;;;;;;;5118610;28;20469;-67
2022/08/17 14:54:50;;;;;;;57.07;2.50;;;;;;;;;;5117337;28;20453;-68
2022/08/17 14:57:17;;;;;;;58.60;3.13;;;;;;;;;;5118027;28;20481;-68
2022/08/17 14:59:44;;;;;;;58.53;2.70;;;;;;;;;;5119334;28;20468;-67
2022/08/17 15:02:11;;;;;;;57.40;2.90;;;;;;;;;;5117168;28;20537;-67
2022/08/17 15:04:40;;;;;;;57.50;2.43;;;;;;;;;;5116500;28;20929;-67
2022/08/17 15:07:07;;;;;;;58.27;3.30;;;;;;;;;;5116853;28;20450;-67
2022/08/17 15:09:34;;;;;;;58.60;2.93;;;;;;;;;;5116885;28;20450;-67
2022/08/17 15:12:02;;;;;;;57.97;3.10;;;;;;;;;;5117496;28;20461;-67
2022/08/17 15:14:29;;;;;;;57.67;3.20;;;;;;;;;;5118214;28;20528;-68
2022/08/17 15:16:56;;;;;;;57.57;2.70;;;;;;;;;;5118232;28;20481;-68